Jackie — WDF2439 — position and weather

sailwx.info

Track history (hours):
 
Tides and Currents Weather Stations Pressure Air Temp Water Temp Dewpoint Dewpoint Depression Visibility Wind Speed Wind Dir Waves Ship Positions

Jackie

Owner: Enterprise Marine Services, LLC, San Antonio, TX. More information available from US FCC via Universal Licensing System and Coast Guard Vessel Documentation Center.

Last reported at 2017-Nov-19 18:49 UTC. Time now 2017-Nov-21 11:58 UTC.
Position N 32°36' W 091°08'.

Length 24 m; draft 3.3 m.

Type: . MMSI: 367050250.

Date/timePositionNaut miles runAvg speedWind from/ knotsBaromVisibWave heightAir tempDewpointWater temp
2017-Nov-19 18:49N 32°36' W 091°08'1 3.4
2017-Nov-19 18:30N 32°35' W 091°07'5 4.7
2017-Nov-19 17:21N 32°29' W 091°07'2 5.3
2017-Nov-19 17:01N 32°28' W 091°06'3 5.6
2017-Nov-19 16:31N 32°26' W 091°03'3 5.4
2017-Nov-19 16:00N 32°25' W 091°00'2 4.5
2017-Nov-19 15:31N 32°23' W 090°60'2 4.2
2017-Nov-19 15:00N 32°21' W 090°59'1 2.3
2017-Nov-19 14:30N 32°21' W 090°58'0 0.2
2017-Nov-19 14:00N 32°21' W 090°58'2 4.5
2017-Nov-19 13:30N 32°21' W 090°55'2 4.4
2017-Nov-19 13:01N 32°18' W 090°55'3 5.8
2017-Nov-19 12:31N 32°17' W 090°57'3 5.4
2017-Nov-19 12:00N 32°14' W 090°59'3 5.6
2017-Nov-19 11:31N 32°12' W 090°59'3 5.4
2017-Nov-19 11:01N 32°09' W 091°00'2 4.6
2017-Nov-19 10:31N 32°07' W 091°02'3 5.1
2017-Nov-19 10:00N 32°08' W 091°05'  
2017-Nov-16 21:45N 29°32' W 090°50'2 7.0
2017-Nov-16 21:30N 29°32' W 090°48'3 6.0
2017-Nov-16 21:01N 29°33' W 090°45'2 3.9
2017-Nov-16 20:31N 29°34' W 090°43'0 0.7
2017-Nov-16 20:00N 29°34' W 090°43'0 0.2
2017-Nov-16 19:30N 29°34' W 090°43'0 0.0
2017-Nov-16 19:00N 29°34' W 090°43'0 0.3
2017-Nov-16 18:30N 29°34' W 090°43'0 0.2
2017-Nov-16 18:01N 29°34' W 090°43'0 0.0
2017-Nov-16 17:30N 29°34' W 090°43'0 0.0
2017-Nov-16 17:01N 29°34' W 090°43'0 0.0
2017-Nov-16 16:31N 29°34' W 090°43'0 0.0
2017-Nov-16 16:00N 29°34' W 090°43'0 0.0
2017-Nov-16 15:30N 29°34' W 090°43'0 0.3
2017-Nov-16 15:01N 29°34' W 090°43'1 1.1
2017-Nov-16 14:30N 29°34' W 090°43'1 1.1
2017-Nov-16 14:00N 29°35' W 090°43'0 0.0
2017-Nov-16 13:31N 29°35' W 090°43'2 3.7
2017-Nov-16 13:00N 29°37' W 090°42'2 4.5
2017-Nov-16 12:30N 29°36' W 090°40'2 4.5
2017-Nov-16 12:01N 29°35' W 090°38'0 0.0
2017-Nov-16 11:30N 29°35' W 090°38'0 0.0
2017-Nov-16 11:00N 29°35' W 090°38'0 0.0
2017-Nov-16 10:30N 29°35' W 090°38'0 0.0
2017-Nov-16 10:01N 29°35' W 090°38'0 0.0
2017-Nov-16 09:31N 29°35' W 090°38'0 0.0
2017-Nov-16 09:01N 29°35' W 090°38'0 0.0
2017-Nov-16 08:31N 29°35' W 090°38'0 0.0
2017-Nov-16 08:01N 29°35' W 090°38'0 0.0
2017-Nov-16 07:31N 29°35' W 090°38'0 0.0
2017-Nov-16 07:01N 29°35' W 090°38'2 3.9
2017-Nov-16 06:31N 29°35' W 090°35'3 6.7
2017-Nov-16 06:01N 29°34' W 090°32'  
Track history (hours):
 
Tides and Currents Weather Stations Pressure Air Temp Water Temp Dewpoint Dewpoint Depression Visibility Wind Speed Wind Dir Waves Ship Positions

Jackie

Owner: Enterprise Marine Services, LLC, San Antonio, TX. More information available from US FCC via Universal Licensing System and Coast Guard Vessel Documentation Center.

Last reported at 2017-Nov-19 18:49 UTC. Time now 2017-Nov-21 11:58 UTC.
Position N 32°36' W 091°08'.

Length 24 m; draft 3.3 m.

Type: . MMSI: 367050250.

Date/timePositionNaut miles runAvg speedWind from/ knotsBaromVisibWave heightAir tempDewpointWater temp
2017-Nov-19 18:49N 32°36' W 091°08'1 3.4
2017-Nov-19 18:30N 32°35' W 091°07'5 4.7
2017-Nov-19 17:21N 32°29' W 091°07'2 5.3
2017-Nov-19 17:01N 32°28' W 091°06'3 5.6
2017-Nov-19 16:31N 32°26' W 091°03'3 5.4
2017-Nov-19 16:00N 32°25' W 091°00'2 4.5
2017-Nov-19 15:31N 32°23' W 090°60'2 4.2
2017-Nov-19 15:00N 32°21' W 090°59'1 2.3
2017-Nov-19 14:30N 32°21' W 090°58'0 0.2
2017-Nov-19 14:00N 32°21' W 090°58'2 4.5
2017-Nov-19 13:30N 32°21' W 090°55'2 4.4
2017-Nov-19 13:01N 32°18' W 090°55'3 5.8
2017-Nov-19 12:31N 32°17' W 090°57'3 5.4
2017-Nov-19 12:00N 32°14' W 090°59'3 5.6
2017-Nov-19 11:31N 32°12' W 090°59'3 5.4
2017-Nov-19 11:01N 32°09' W 091°00'2 4.6
2017-Nov-19 10:31N 32°07' W 091°02'3 5.1
2017-Nov-19 10:00N 32°08' W 091°05'  
2017-Nov-16 21:45N 29°32' W 090°50'2 7.0
2017-Nov-16 21:30N 29°32' W 090°48'3 6.0
2017-Nov-16 21:01N 29°33' W 090°45'2 3.9
2017-Nov-16 20:31N 29°34' W 090°43'0 0.7
2017-Nov-16 20:00N 29°34' W 090°43'0 0.2
2017-Nov-16 19:30N 29°34' W 090°43'0 0.0
2017-Nov-16 19:00N 29°34' W 090°43'0 0.3
2017-Nov-16 18:30N 29°34' W 090°43'0 0.2
2017-Nov-16 18:01N 29°34' W 090°43'0 0.0
2017-Nov-16 17:30N 29°34' W 090°43'0 0.0
2017-Nov-16 17:01N 29°34' W 090°43'0 0.0
2017-Nov-16 16:31N 29°34' W 090°43'0 0.0
2017-Nov-16 16:00N 29°34' W 090°43'0 0.0
2017-Nov-16 15:30N 29°34' W 090°43'0 0.3
2017-Nov-16 15:01N 29°34' W 090°43'1 1.1
2017-Nov-16 14:30N 29°34' W 090°43'1 1.1
2017-Nov-16 14:00N 29°35' W 090°43'0 0.0
2017-Nov-16 13:31N 29°35' W 090°43'2 3.7
2017-Nov-16 13:00N 29°37' W 090°42'2 4.5
2017-Nov-16 12:30N 29°36' W 090°40'2 4.5
2017-Nov-16 12:01N 29°35' W 090°38'0 0.0
2017-Nov-16 11:30N 29°35' W 090°38'0 0.0
2017-Nov-16 11:00N 29°35' W 090°38'0 0.0
2017-Nov-16 10:30N 29°35' W 090°38'0 0.0
2017-Nov-16 10:01N 29°35' W 090°38'0 0.0
2017-Nov-16 09:31N 29°35' W 090°38'0 0.0
2017-Nov-16 09:01N 29°35' W 090°38'0 0.0
2017-Nov-16 08:31N 29°35' W 090°38'0 0.0
2017-Nov-16 08:01N 29°35' W 090°38'0 0.0
2017-Nov-16 07:31N 29°35' W 090°38'0 0.0
2017-Nov-16 07:01N 29°35' W 090°38'2 3.9
2017-Nov-16 06:31N 29°35' W 090°35'3 6.7
2017-Nov-16 06:01N 29°34' W 090°32'  

Dump ship's entire track history